createdAt,value
2023-05-13T00:00:51.324Z,14.30
2023-05-13T00:01:51.315Z,13.80
2023-05-13T00:02:51.394Z,11.60
2023-05-13T00:03:51.363Z,11.70
2023-05-13T00:04:51.289Z,12.60
2023-05-13T00:05:51.290Z,11.50
2023-05-13T00:06:51.282Z,10.90
2023-05-13T00:07:51.268Z,11.80
2023-05-13T00:08:51.264Z,11.80
2023-05-13T00:09:51.248Z,12.80
2023-05-13T00:10:51.234Z,11.20
2023-05-13T00:11:51.247Z,10.50
2023-05-13T00:12:51.210Z,10.90
2023-05-13T00:13:51.202Z,11.20
2023-05-13T00:14:51.185Z,10.30
2023-05-13T00:15:51.279Z,10.60
2023-05-13T00:16:51.230Z,11.60
2023-05-13T00:17:51.228Z,11.70
2023-05-13T00:18:51.220Z,11.90
2023-05-13T00:19:51.148Z,12.10
2023-05-13T00:20:51.143Z,12.90
2023-05-13T00:21:51.132Z,14.20
2023-05-13T00:22:51.105Z,13.30
2023-05-13T00:23:51.093Z,12.90
2023-05-13T00:24:51.093Z,13.40
2023-05-13T00:25:51.104Z,13.70
2023-05-13T00:26:51.064Z,14.70
2023-05-13T00:27:51.053Z,14.80
2023-05-13T00:28:51.055Z,15.80
2023-05-13T00:29:51.035Z,14.90
2023-05-13T00:30:51.046Z,15.60
2023-05-13T00:31:51.037Z,14.80
2023-05-13T00:32:51.037Z,15.80
2023-05-13T00:33:50.997Z,15.90
2023-05-13T00:34:50.996Z,15.30
2023-05-13T00:35:50.986Z,15.60
2023-05-13T00:36:50.972Z,15.70
2023-05-13T00:37:50.962Z,14.20
2023-05-13T00:38:50.950Z,12.70
2023-05-13T00:39:50.966Z,13.90
2023-05-13T00:40:50.944Z,14.30
2023-05-13T00:41:50.910Z,15.00
2023-05-13T00:42:50.975Z,13.90
2023-05-13T00:43:50.902Z,12.80
2023-05-13T00:44:50.906Z,14.70
2023-05-13T00:45:50.915Z,15.20
2023-05-13T00:46:50.867Z,15.00
2023-05-13T00:47:51.009Z,13.70
2023-05-13T00:48:50.866Z,13.20
2023-05-13T00:49:50.861Z,13.70
2023-05-13T00:50:50.830Z,11.70
2023-05-13T00:51:50.818Z,11.30
2023-05-13T00:52:50.820Z,11.40
2023-05-13T00:53:50.833Z,11.80
2023-05-13T00:54:50.807Z,10.20
2023-05-13T00:55:50.816Z,11.00
2023-05-13T00:56:50.772Z,11.00
2023-05-13T00:57:50.761Z,10.80
2023-05-13T00:58:50.784Z,11.10
2023-05-13T00:59:50.749Z,12.50
2023-05-13T01:00:50.789Z,13.30
2023-05-13T01:01:50.731Z,12.00
2023-05-13T01:02:50.801Z,11.80
2023-05-13T01:03:50.724Z,11.00
2023-05-13T01:04:50.698Z,10.70
2023-05-13T01:05:50.699Z,11.00
2023-05-13T01:06:50.673Z,11.10
2023-05-13T01:07:50.653Z,11.00
2023-05-13T01:08:50.668Z,10.60
2023-05-13T01:09:50.632Z,8.70
2023-05-13T01:10:50.636Z,10.70
2023-05-13T01:11:50.627Z,10.90
2023-05-13T01:12:50.606Z,12.00
2023-05-13T01:13:50.601Z,13.00
2023-05-13T01:14:50.586Z,12.50
2023-05-13T01:15:50.581Z,12.70
2023-05-13T01:16:50.606Z,12.60
2023-05-13T01:17:50.595Z,12.30
2023-05-13T01:18:50.612Z,12.40
2023-05-13T01:19:50.544Z,11.40
2023-05-13T01:20:50.524Z,10.00
2023-05-13T01:21:50.517Z,10.60
2023-05-13T01:22:50.522Z,9.70
2023-05-13T01:23:50.502Z,10.20
2023-05-13T01:24:50.521Z,10.40
2023-05-13T01:25:50.477Z,11.70
2023-05-13T01:26:50.469Z,12.90
2023-05-13T01:27:50.454Z,12.30
2023-05-13T01:28:51.459Z,11.30
2023-05-13T01:29:50.447Z,11.80
2023-05-13T01:30:50.480Z,10.30
2023-05-13T01:31:50.429Z,10.90
2023-05-13T01:32:50.476Z,10.10
2023-05-13T01:33:50.406Z,9.90
2023-05-13T01:34:50.388Z,9.10
2023-05-13T01:35:50.382Z,9.10
2023-05-13T01:36:50.379Z,10.50
2023-05-13T01:37:50.370Z,10.30
2023-05-13T01:38:50.362Z,8.70
2023-05-13T01:39:50.347Z,9.40
2023-05-13T01:40:50.344Z,11.60
2023-05-13T01:41:50.342Z,11.30
2023-05-13T01:42:50.315Z,10.00
2023-05-13T01:43:50.304Z,10.00
2023-05-13T01:44:50.301Z,10.40
2023-05-13T01:45:50.298Z,11.10
2023-05-13T01:46:50.543Z,9.40
2023-05-13T01:47:50.325Z,9.60
2023-05-13T01:48:50.257Z,9.70
2023-05-13T01:49:50.241Z,10.40
2023-05-13T01:50:50.262Z,9.60
2023-05-13T01:51:50.226Z,9.90
2023-05-13T01:52:50.213Z,9.10
2023-05-13T01:53:50.215Z,9.80
2023-05-13T01:54:50.192Z,11.40
2023-05-13T01:55:50.208Z,8.50
2023-05-13T01:56:50.177Z,9.00
2023-05-13T01:57:50.171Z,9.90
2023-05-13T01:58:50.142Z,10.20
2023-05-13T01:59:51.188Z,10.80
2023-05-13T02:00:50.140Z,9.40
2023-05-13T02:01:50.140Z,9.60
2023-05-13T02:02:50.178Z,9.80
2023-05-13T02:03:50.215Z,9.60
2023-05-13T02:04:50.106Z,9.60
2023-05-13T02:05:50.085Z,11.10
2023-05-13T02:06:50.076Z,14.10
2023-05-13T02:07:50.064Z,15.90
2023-05-13T02:08:50.051Z,17.80
2023-05-13T02:09:50.053Z,24.40
2023-05-13T02:10:50.041Z,26.00
2023-05-13T02:11:50.050Z,28.80
2023-05-13T02:12:50.031Z,27.30
2023-05-13T02:13:50.019Z,31.80
2023-05-13T02:14:50.014Z,29.10
2023-05-13T02:15:49.991Z,20.80
2023-05-13T02:16:50.163Z,16.20
2023-05-13T02:17:50.003Z,16.00
2023-05-13T02:18:50.038Z,15.80
2023-05-13T02:19:49.948Z,14.80
2023-05-13T02:20:49.947Z,14.80
2023-05-13T02:21:49.939Z,16.40
2023-05-13T02:22:49.914Z,17.40
2023-05-13T02:23:49.912Z,16.90
2023-05-13T02:24:49.900Z,17.80
2023-05-13T02:25:49.884Z,16.90
2023-05-13T02:26:49.891Z,15.40
2023-05-13T02:27:49.886Z,16.80
2023-05-13T02:28:49.876Z,18.10
2023-05-13T02:29:49.847Z,16.60
2023-05-13T02:30:49.848Z,16.20
2023-05-13T02:31:49.837Z,17.60
2023-05-13T02:32:49.882Z,16.50
2023-05-13T02:33:49.805Z,17.00
2023-05-13T02:34:49.806Z,18.80
2023-05-13T02:35:49.795Z,19.40
2023-05-13T02:36:49.776Z,23.20
2023-05-13T02:37:49.784Z,20.50
2023-05-13T02:38:49.756Z,21.60
2023-05-13T02:39:49.744Z,21.30
2023-05-13T02:40:49.746Z,18.90
2023-05-13T02:41:49.741Z,19.00
2023-05-13T02:42:49.738Z,19.60
2023-05-13T02:43:49.728Z,18.90
2023-05-13T02:44:49.707Z,18.30
2023-05-13T02:45:49.720Z,19.40
2023-05-13T02:46:49.685Z,18.60
2023-05-13T02:47:49.709Z,20.90
2023-05-13T02:48:49.671Z,21.80
2023-05-13T02:49:50.660Z,21.90
2023-05-13T02:50:49.637Z,28.60
2023-05-13T02:51:49.648Z,31.00
2023-05-13T02:52:49.626Z,28.10
2023-05-13T02:53:49.613Z,30.70
2023-05-13T02:54:49.628Z,23.80
2023-05-13T02:55:49.602Z,23.60
2023-05-13T02:56:49.596Z,23.30
2023-05-13T02:57:49.580Z,25.10
2023-05-13T02:58:49.558Z,27.20
2023-05-13T02:59:49.557Z,28.50
2023-05-13T03:00:49.554Z,23.20
2023-05-13T03:01:49.586Z,24.80
2023-05-13T03:02:49.550Z,25.70
2023-05-13T03:03:49.542Z,26.80
2023-05-13T03:04:49.502Z,26.00
2023-05-13T03:05:49.520Z,26.00
2023-05-13T03:06:49.491Z,27.20
2023-05-13T03:07:49.476Z,25.00
2023-05-13T03:08:49.462Z,25.20
2023-05-13T03:09:49.474Z,23.00
2023-05-13T03:10:49.465Z,24.00
2023-05-13T03:11:49.428Z,23.00
2023-05-13T03:12:49.425Z,26.50
2023-05-13T03:13:49.419Z,27.20
2023-05-13T03:14:49.424Z,26.40
2023-05-13T03:15:49.445Z,26.80
2023-05-13T03:16:49.388Z,33.30
2023-05-13T03:17:49.400Z,34.80
2023-05-13T03:18:49.386Z,36.80
2023-05-13T03:19:49.372Z,31.00
2023-05-13T03:20:49.347Z,27.00
2023-05-13T03:21:49.336Z,26.90
2023-05-13T03:22:49.329Z,22.80
2023-05-13T03:23:49.314Z,24.00
2023-05-13T03:24:49.319Z,26.70
2023-05-13T03:25:49.295Z,29.00
2023-05-13T03:26:49.291Z,26.60
2023-05-13T03:27:49.275Z,25.70
2023-05-13T03:28:49.273Z,25.60
2023-05-13T03:29:49.265Z,24.40
2023-05-13T03:30:49.251Z,25.40
2023-05-13T03:31:49.278Z,23.20
2023-05-13T03:32:49.320Z,23.50
2023-05-13T03:33:49.225Z,24.90
2023-05-13T03:34:49.224Z,27.30
2023-05-13T03:35:49.202Z,26.50
2023-05-13T03:36:49.202Z,26.60
2023-05-13T03:37:49.175Z,28.50
2023-05-13T03:38:49.180Z,30.30
2023-05-13T03:39:49.164Z,28.30
2023-05-13T03:40:49.156Z,26.30
2023-05-13T03:41:49.138Z,29.80
2023-05-13T03:42:49.122Z,31.20
2023-05-13T03:43:49.129Z,29.70
2023-05-13T03:44:49.114Z,26.00
2023-05-13T03:45:49.096Z,28.20
2023-05-13T03:46:49.138Z,29.10
2023-05-13T03:47:49.105Z,28.70
2023-05-13T03:48:49.083Z,27.30
2023-05-13T03:49:49.063Z,27.20
2023-05-13T03:50:49.056Z,29.30
2023-05-13T03:51:49.042Z,27.80
2023-05-13T03:52:49.038Z,31.30
2023-05-13T03:53:49.020Z,29.80
2023-05-13T03:54:49.115Z,29.40
2023-05-13T03:55:48.995Z,34.90
2023-05-13T03:56:48.981Z,35.30
2023-05-13T03:57:49.015Z,33.80
2023-05-13T03:58:48.979Z,32.90
2023-05-13T03:59:48.954Z,33.30
2023-05-13T04:00:48.967Z,30.80
2023-05-13T04:01:49.063Z,32.50
2023-05-13T04:02:49.054Z,30.70
2023-05-13T04:03:48.987Z,26.70
2023-05-13T04:04:49.011Z,23.70
2023-05-13T04:05:49.013Z,26.40
2023-05-13T04:06:48.894Z,30.60
2023-05-13T04:07:48.873Z,30.60
2023-05-13T04:08:48.920Z,29.70
2023-05-13T04:09:48.896Z,27.60
2023-05-13T04:10:48.877Z,27.40
2023-05-13T04:11:48.858Z,24.10
2023-05-13T04:12:48.838Z,25.90
2023-05-13T04:13:48.854Z,30.40
2023-05-13T04:14:48.800Z,29.10
2023-05-13T04:15:48.806Z,30.40
2023-05-13T04:16:48.860Z,32.10
2023-05-13T04:17:48.829Z,33.20
2023-05-13T04:18:48.851Z,32.30
2023-05-13T04:19:48.793Z,32.70
2023-05-13T04:20:48.778Z,32.30
2023-05-13T04:21:48.736Z,32.90
2023-05-13T04:22:48.737Z,34.80
2023-05-13T04:23:48.725Z,36.10
2023-05-13T04:24:48.696Z,25.30
2023-05-13T04:25:48.707Z,24.30
2023-05-13T04:26:48.678Z,21.70
2023-05-13T04:27:48.672Z,43.40
2023-05-13T04:28:48.659Z,26.00
2023-05-13T04:29:48.651Z,21.60
2023-05-13T04:30:48.643Z,22.00
2023-05-13T04:31:48.681Z,34.80
2023-05-13T04:32:48.640Z,43.90
2023-05-13T04:33:48.610Z,37.10
2023-05-13T04:34:48.599Z,38.50
2023-05-13T04:35:48.595Z,37.30
2023-05-13T04:36:48.574Z,40.10
2023-05-13T04:37:48.562Z,32.10
2023-05-13T04:38:48.550Z,24.40
2023-05-13T04:39:48.544Z,27.50
2023-05-13T04:40:49.550Z,31.20
2023-05-13T04:41:48.526Z,29.70
2023-05-13T04:42:48.511Z,30.00
2023-05-13T04:43:48.523Z,26.70
2023-05-13T04:44:48.507Z,25.10
2023-05-13T04:45:48.488Z,22.90
2023-05-13T04:46:48.565Z,21.80
2023-05-13T04:47:48.500Z,28.40
2023-05-13T04:48:48.753Z,28.70
2023-05-13T04:49:48.448Z,30.00
2023-05-13T04:50:48.453Z,27.50
2023-05-13T04:51:48.430Z,21.10
2023-05-13T04:52:48.413Z,22.20
2023-05-13T04:53:48.405Z,18.20
2023-05-13T04:54:48.397Z,17.10
2023-05-13T04:55:48.367Z,27.90
2023-05-13T04:56:48.373Z,28.40
2023-05-13T04:57:48.354Z,24.60
2023-05-13T04:58:48.358Z,26.30
2023-05-13T04:59:48.333Z,25.00
2023-05-13T05:00:48.336Z,24.80
2023-05-13T05:01:48.366Z,26.00
2023-05-13T05:02:48.362Z,26.70
2023-05-13T05:03:48.361Z,32.30
2023-05-13T05:04:48.281Z,24.50
2023-05-13T05:05:48.278Z,22.50
2023-05-13T05:06:48.262Z,31.40
2023-05-13T05:07:48.263Z,24.90
2023-05-13T05:08:48.259Z,20.10
2023-05-13T05:09:48.236Z,27.10
2023-05-13T05:10:49.308Z,24.70
2023-05-13T05:11:48.211Z,26.10
2023-05-13T05:12:48.213Z,26.50
2023-05-13T05:13:48.192Z,18.10
2023-05-13T05:14:48.185Z,19.30
2023-05-13T05:15:48.179Z,16.70
2023-05-13T05:16:48.309Z,16.20
2023-05-13T05:17:48.279Z,22.10
2023-05-13T05:18:48.288Z,22.90
2023-05-13T05:19:48.134Z,26.30
2023-05-13T05:20:48.125Z,32.10
2023-05-13T05:21:48.111Z,23.40
2023-05-13T05:22:48.111Z,21.30
2023-05-13T05:23:48.090Z,25.70
2023-05-13T05:24:48.117Z,22.30
2023-05-13T05:25:49.801Z,23.10
2023-05-13T05:26:49.064Z,23.40
2023-05-13T05:27:48.056Z,22.90
2023-05-13T05:28:48.041Z,23.90
2023-05-13T05:29:48.028Z,20.40
2023-05-13T05:30:48.023Z,21.00
2023-05-13T05:31:48.097Z,19.60
2023-05-13T05:32:48.048Z,20.40
2023-05-13T05:33:47.982Z,25.30
2023-05-13T05:34:47.979Z,22.10
2023-05-13T05:35:47.965Z,22.70
2023-05-13T05:36:47.962Z,18.80
2023-05-13T05:37:47.954Z,18.60
2023-05-13T05:38:47.928Z,17.80
2023-05-13T05:39:47.929Z,17.90
2023-05-13T05:40:47.939Z,16.60
2023-05-13T05:41:47.914Z,18.80
2023-05-13T05:42:47.894Z,15.80
2023-05-13T05:43:47.894Z,14.10
2023-05-13T05:44:47.894Z,14.20
2023-05-13T05:45:47.897Z,16.00
2023-05-13T05:46:47.851Z,15.60
2023-05-13T05:47:47.867Z,18.40
2023-05-13T05:48:47.993Z,18.60
2023-05-13T05:49:47.821Z,17.00
2023-05-13T05:50:47.816Z,17.60
2023-05-13T05:51:47.806Z,18.10
2023-05-13T05:52:47.788Z,15.10
2023-05-13T05:53:47.784Z,16.50
2023-05-13T05:54:47.767Z,12.90
2023-05-13T05:55:47.768Z,15.40
2023-05-13T05:56:47.758Z,12.50
2023-05-13T05:57:47.752Z,11.80
2023-05-13T05:58:47.741Z,13.20
2023-05-13T05:59:47.737Z,14.30
2023-05-13T06:00:47.773Z,14.50
2023-05-13T06:01:47.693Z,12.00
2023-05-13T06:02:47.804Z,11.10
2023-05-13T06:03:47.717Z,15.00
2023-05-13T06:04:47.696Z,15.40
2023-05-13T06:05:47.670Z,13.20
2023-05-13T06:06:47.679Z,12.10
2023-05-13T06:07:47.644Z,12.00
2023-05-13T06:08:47.629Z,13.00
2023-05-13T06:09:47.632Z,13.10
2023-05-13T06:10:47.618Z,13.80
2023-05-13T06:11:47.600Z,12.40
2023-05-13T06:12:47.590Z,13.40
2023-05-13T06:13:47.587Z,14.50
2023-05-13T06:14:47.576Z,14.60
2023-05-13T06:15:47.631Z,13.30
2023-05-13T06:16:47.555Z,12.70
2023-05-13T06:17:47.569Z,11.50
2023-05-13T06:18:47.579Z,10.70
2023-05-13T06:19:47.531Z,10.30
2023-05-13T06:20:47.511Z,12.40
2023-05-13T06:21:47.511Z,10.90
2023-05-13T06:22:47.499Z,12.60
2023-05-13T06:23:47.484Z,14.60
2023-05-13T06:24:47.465Z,14.50
2023-05-13T06:25:47.461Z,16.60
2023-05-13T06:26:47.448Z,18.70
2023-05-13T06:27:47.457Z,10.80
2023-05-13T06:28:47.484Z,13.40
2023-05-13T06:29:47.433Z,14.30
2023-05-13T06:30:47.418Z,22.10
2023-05-13T06:31:47.455Z,15.00
2023-05-13T06:33:00.279Z,15.20
2023-05-13T06:33:49.380Z,14.40
2023-05-13T06:34:47.396Z,14.40
2023-05-13T06:35:47.369Z,14.60
2023-05-13T06:36:47.351Z,14.60
2023-05-13T06:37:47.365Z,18.70
2023-05-13T06:38:47.364Z,15.10
2023-05-13T06:39:47.327Z,11.10
2023-05-13T06:40:47.318Z,10.20
2023-05-13T06:41:47.317Z,10.90
2023-05-13T06:42:47.310Z,19.50
2023-05-13T06:43:47.292Z,18.90
2023-05-13T06:44:47.290Z,12.60
2023-05-13T06:45:47.284Z,14.80
2023-05-13T06:46:47.281Z,16.90
2023-05-13T06:47:47.296Z,14.80
2023-05-13T06:48:47.233Z,15.30
2023-05-13T06:49:47.225Z,14.80
2023-05-13T06:50:47.229Z,16.00
2023-05-13T06:51:47.238Z,14.30
2023-05-13T06:52:47.205Z,16.00
2023-05-13T06:53:47.205Z,14.00
2023-05-13T06:54:47.187Z,15.30
2023-05-13T06:55:47.171Z,15.20
2023-05-13T06:56:47.178Z,14.30
2023-05-13T06:57:47.197Z,12.70
2023-05-13T06:58:47.148Z,15.40
2023-05-13T06:59:47.135Z,15.90
2023-05-13T07:00:47.201Z,14.60
2023-05-13T07:01:47.139Z,13.60
2023-05-13T07:02:47.125Z,14.10
2023-05-13T07:03:47.126Z,13.10
2023-05-13T07:04:47.080Z,12.30
2023-05-13T07:05:47.071Z,12.50
2023-05-13T07:06:47.068Z,13.00
2023-05-13T07:07:47.077Z,13.50
2023-05-13T07:08:47.038Z,10.60
2023-05-13T07:09:47.020Z,10.20
2023-05-13T07:10:47.058Z,9.90
2023-05-13T07:11:47.026Z,9.90
2023-05-13T07:12:46.997Z,10.10
2023-05-13T07:13:46.987Z,10.50
2023-05-13T07:14:46.975Z,9.70
2023-05-13T07:15:46.967Z,8.60
2023-05-13T07:16:46.949Z,8.10
2023-05-13T07:17:47.041Z,8.00
2023-05-13T07:18:46.964Z,8.30
2023-05-13T07:19:46.934Z,7.70
2023-05-13T07:20:46.925Z,8.20
2023-05-13T07:21:46.915Z,8.20
2023-05-13T07:22:46.899Z,7.80
2023-05-13T07:23:46.887Z,7.50
2023-05-13T07:24:46.901Z,6.80
2023-05-13T07:25:46.861Z,7.00
2023-05-13T07:26:46.877Z,6.80
2023-05-13T07:27:46.844Z,6.60
2023-05-13T07:28:46.817Z,6.60
2023-05-13T07:29:46.826Z,6.30
2023-05-13T07:30:46.857Z,5.90
2023-05-13T07:31:46.794Z,5.70
2023-05-13T07:32:46.884Z,6.00
2023-05-13T07:33:46.773Z,5.90
2023-05-13T07:34:46.780Z,6.50
2023-05-13T07:35:46.744Z,5.90
2023-05-13T07:36:46.774Z,6.10
2023-05-13T07:37:46.739Z,5.50
2023-05-13T07:38:46.728Z,5.80
2023-05-13T07:39:46.720Z,6.20
2023-05-13T07:40:46.704Z,5.60
2023-05-13T07:41:46.684Z,5.10
2023-05-13T07:42:46.694Z,5.90
2023-05-13T07:43:46.686Z,5.60
2023-05-13T07:44:46.665Z,5.70
2023-05-13T07:45:46.662Z,5.40
2023-05-13T07:46:46.707Z,5.40
2023-05-13T07:47:46.711Z,5.80
2023-05-13T07:48:46.629Z,4.90
2023-05-13T07:49:46.631Z,5.20
2023-05-13T07:50:46.600Z,5.30
2023-05-13T07:51:46.604Z,5.40
2023-05-13T07:52:46.595Z,5.40
2023-05-13T07:53:46.564Z,5.60
2023-05-13T07:54:46.558Z,5.40
2023-05-13T07:55:46.552Z,5.40
2023-05-13T07:56:46.566Z,5.60
2023-05-13T07:57:46.549Z,5.40
2023-05-13T07:58:46.526Z,5.60
2023-05-13T07:59:46.547Z,5.80
2023-05-13T08:00:46.504Z,5.70
2023-05-13T08:01:46.493Z,5.70
2023-05-13T08:02:46.540Z,5.60
2023-05-13T08:03:46.691Z,5.90
2023-05-13T08:04:46.524Z,5.20
2023-05-13T08:05:46.449Z,5.60
2023-05-13T08:06:46.454Z,5.30
2023-05-13T08:07:46.436Z,4.90
2023-05-13T08:08:46.436Z,4.40
2023-05-13T08:09:46.412Z,5.20
2023-05-13T08:10:46.410Z,5.70
2023-05-13T08:11:46.404Z,5.40
2023-05-13T08:12:46.381Z,5.30
2023-05-13T08:13:46.383Z,5.00
2023-05-13T08:14:48.250Z,5.30
2023-05-13T08:15:46.352Z,5.00
2023-05-13T08:16:46.476Z,5.30
2023-05-13T08:17:46.400Z,5.10
2023-05-13T08:18:46.342Z,4.70
2023-05-13T08:19:46.304Z,5.00
2023-05-13T08:20:46.307Z,4.90
2023-05-13T08:21:46.324Z,5.10
2023-05-13T08:22:46.280Z,5.00
2023-05-13T08:23:46.387Z,4.70
2023-05-13T08:24:46.277Z,4.70
2023-05-13T08:25:46.266Z,4.80
2023-05-13T08:26:46.260Z,4.60
2023-05-13T08:27:46.245Z,4.40
2023-05-13T08:28:46.231Z,4.70
2023-05-13T08:29:46.216Z,4.40
2023-05-13T08:30:46.214Z,5.00
2023-05-13T08:31:46.281Z,4.40
2023-05-13T08:32:46.247Z,4.90
2023-05-13T08:33:46.170Z,4.90
2023-05-13T08:34:46.169Z,4.40
2023-05-13T08:35:46.177Z,4.30
2023-05-13T08:36:46.144Z,4.10
2023-05-13T08:37:46.150Z,4.50
2023-05-13T08:38:46.135Z,4.30
2023-05-13T08:39:46.131Z,4.50
2023-05-13T08:40:46.124Z,4.50
2023-05-13T08:41:46.101Z,4.80
2023-05-13T08:42:46.085Z,4.10
2023-05-13T08:43:46.082Z,4.40
2023-05-13T08:44:46.077Z,4.10
2023-05-13T08:45:46.089Z,4.10
2023-05-13T08:46:46.043Z,4.20
2023-05-13T08:47:46.079Z,4.50
2023-05-13T08:48:46.029Z,4.30
2023-05-13T08:49:46.021Z,4.00
2023-05-13T08:50:46.019Z,4.30
2023-05-13T08:51:46.007Z,3.70
2023-05-13T08:52:46.002Z,4.40
2023-05-13T08:53:46.001Z,3.80
2023-05-13T08:54:45.982Z,4.40
2023-05-13T08:55:45.970Z,4.20
2023-05-13T08:56:45.953Z,4.30
2023-05-13T08:57:45.940Z,4.40
2023-05-13T08:58:46.027Z,4.20
2023-05-13T08:59:45.921Z,4.00
2023-05-13T09:00:45.914Z,3.60
2023-05-13T09:01:46.038Z,4.00
2023-05-13T09:02:45.954Z,3.80
2023-05-13T09:03:45.891Z,4.10
2023-05-13T09:04:45.911Z,3.60
2023-05-13T09:05:45.858Z,3.60
2023-05-13T09:06:45.847Z,3.80
2023-05-13T09:07:45.857Z,4.10
2023-05-13T09:08:45.847Z,3.60
2023-05-13T09:09:45.817Z,4.00
2023-05-13T09:10:45.809Z,3.70
2023-05-13T09:11:45.804Z,3.80
2023-05-13T09:12:45.804Z,3.90
2023-05-13T09:13:45.789Z,3.60
2023-05-13T09:14:45.771Z,3.80
2023-05-13T09:15:45.836Z,3.90
2023-05-13T09:16:45.757Z,3.40
2023-05-13T09:17:45.845Z,4.00
2023-05-13T09:18:45.770Z,4.10
2023-05-13T09:19:45.859Z,3.90
2023-05-13T09:20:45.717Z,3.70
2023-05-13T09:21:45.744Z,3.60
2023-05-13T09:22:45.710Z,3.50
2023-05-13T09:23:45.680Z,3.20
2023-05-13T09:24:45.670Z,3.60
2023-05-13T09:25:45.659Z,3.80
2023-05-13T09:26:45.675Z,3.30
2023-05-13T09:27:45.649Z,3.00
2023-05-13T09:28:45.629Z,2.80
2023-05-13T09:29:45.619Z,3.20
2023-05-13T09:30:46.782Z,3.00
2023-05-13T09:31:46.652Z,3.00
2023-05-13T09:32:45.632Z,3.20
2023-05-13T09:33:45.582Z,2.90
2023-05-13T09:34:45.570Z,3.20
2023-05-13T09:35:45.574Z,3.80
2023-05-13T09:36:45.563Z,3.20
2023-05-13T09:37:45.537Z,3.20
2023-05-13T09:38:45.530Z,2.90
2023-05-13T09:39:45.522Z,3.00
2023-05-13T09:40:45.523Z,3.10
2023-05-13T09:41:45.511Z,3.30
2023-05-13T09:42:45.501Z,3.30
2023-05-13T09:43:45.481Z,2.90
2023-05-13T09:44:45.484Z,3.10
2023-05-13T09:45:45.486Z,2.90
2023-05-13T09:46:45.520Z,3.60
2023-05-13T09:47:45.459Z,3.00
2023-05-13T09:48:46.444Z,3.10
2023-05-13T09:49:45.448Z,3.20
2023-05-13T09:50:45.433Z,3.20
2023-05-13T09:51:45.406Z,3.30
2023-05-13T09:52:45.402Z,3.40
2023-05-13T09:53:45.392Z,3.60
2023-05-13T09:54:45.384Z,3.40
2023-05-13T09:55:45.384Z,2.90
2023-05-13T09:56:45.362Z,3.30
2023-05-13T09:57:45.349Z,3.30
2023-05-13T09:58:45.347Z,3.50
2023-05-13T09:59:45.349Z,3.60
2023-05-13T10:00:45.641Z,3.70
2023-05-13T10:01:45.493Z,3.50
2023-05-13T10:02:45.349Z,3.40
2023-05-13T10:03:45.333Z,3.40
2023-05-13T10:04:45.297Z,3.50
2023-05-13T10:05:45.278Z,3.30
2023-05-13T10:06:45.266Z,3.40
2023-05-13T10:07:45.255Z,3.50
2023-05-13T10:08:45.245Z,3.60
2023-05-13T10:09:45.247Z,3.70
2023-05-13T10:10:45.224Z,3.30
2023-05-13T10:11:45.221Z,3.20
2023-05-13T10:12:45.212Z,2.90
2023-05-13T10:13:45.218Z,3.30
2023-05-13T10:14:45.205Z,3.30
2023-05-13T10:15:45.182Z,2.80
2023-05-13T10:16:45.193Z,3.10
2023-05-13T10:17:45.186Z,3.20
2023-05-13T10:18:45.203Z,3.20
2023-05-13T10:19:45.134Z,2.90
2023-05-13T10:20:46.130Z,3.00
2023-05-13T10:21:45.120Z,3.10
2023-05-13T10:22:45.109Z,3.00
2023-05-13T10:23:45.117Z,3.10
2023-05-13T10:24:45.091Z,3.50
2023-05-13T10:25:45.090Z,2.60
2023-05-13T10:26:45.078Z,2.90
2023-05-13T10:27:45.078Z,3.00
2023-05-13T10:28:45.061Z,2.80
2023-05-13T10:29:45.042Z,3.10
2023-05-13T10:30:45.034Z,3.00
2023-05-13T10:31:45.042Z,2.80
2023-05-13T10:32:45.037Z,2.80
2023-05-13T10:33:45.014Z,3.10
2023-05-13T10:34:45.009Z,3.00
2023-05-13T10:35:44.972Z,2.90
2023-05-13T10:36:44.975Z,2.70
2023-05-13T10:37:44.986Z,2.70
2023-05-13T10:38:44.977Z,2.70
2023-05-13T10:39:44.936Z,3.00
2023-05-13T10:40:44.933Z,2.90
2023-05-13T10:41:44.916Z,2.40
2023-05-13T10:42:44.936Z,2.90
2023-05-13T10:43:44.902Z,3.00
2023-05-13T10:44:44.889Z,2.70
2023-05-13T10:45:44.885Z,2.60
2023-05-13T10:46:44.957Z,2.70
2023-05-13T10:47:44.965Z,2.90
2023-05-13T10:48:44.897Z,2.60
2023-05-13T10:49:44.843Z,2.90
2023-05-13T10:50:44.832Z,2.90
2023-05-13T10:51:44.826Z,3.40
2023-05-13T10:52:44.804Z,2.90
2023-05-13T10:53:44.818Z,2.90
2023-05-13T10:54:44.784Z,2.70
2023-05-13T10:55:44.783Z,3.10
2023-05-13T10:56:44.791Z,2.80
2023-05-13T10:57:44.759Z,2.80
2023-05-13T10:58:44.768Z,2.80
2023-05-13T10:59:44.749Z,2.70
2023-05-13T11:00:44.740Z,2.70
2023-05-13T11:01:44.769Z,2.60
2023-05-13T11:02:44.755Z,3.20
2023-05-13T11:03:44.794Z,2.80
2023-05-13T11:04:44.692Z,2.50
2023-05-13T11:05:44.697Z,3.00
2023-05-13T11:06:44.671Z,2.70
2023-05-13T11:07:44.670Z,2.60
2023-05-13T11:08:44.669Z,3.20
2023-05-13T11:09:44.647Z,2.30
2023-05-13T11:10:44.693Z,2.70
2023-05-13T11:11:44.625Z,2.80
2023-05-13T11:12:44.621Z,2.60
2023-05-13T11:13:44.611Z,2.70
2023-05-13T11:14:44.598Z,2.80
2023-05-13T11:15:45.735Z,2.40
2023-05-13T11:16:45.622Z,2.70
2023-05-13T11:17:44.635Z,2.90
2023-05-13T11:18:44.620Z,2.80
2023-05-13T11:19:44.547Z,2.80
2023-05-13T11:20:52.077Z,3.20
2023-05-13T11:21:46.536Z,2.70
2023-05-13T11:22:44.522Z,2.80
2023-05-13T11:23:44.512Z,2.70
2023-05-13T11:24:44.518Z,2.60
2023-05-13T11:25:44.509Z,2.50
2023-05-13T11:26:44.487Z,2.70
2023-05-13T11:27:44.479Z,2.60
2023-05-13T11:28:44.473Z,2.90
2023-05-13T11:29:44.469Z,2.60
2023-05-13T11:30:52.027Z,3.00
2023-05-13T11:31:45.468Z,2.60
2023-05-13T11:32:45.160Z,2.90
2023-05-13T11:33:44.457Z,2.40
2023-05-13T11:34:44.474Z,2.80
2023-05-13T11:35:44.404Z,2.40
2023-05-13T11:36:44.387Z,2.60
2023-05-13T11:37:44.396Z,2.40
2023-05-13T11:38:44.436Z,2.60
2023-05-13T11:39:44.622Z,2.40
2023-05-13T11:40:44.359Z,3.30
2023-05-13T11:41:44.382Z,2.80
2023-05-13T11:42:45.655Z,2.80
2023-05-13T11:43:44.366Z,2.60
2023-05-13T11:44:44.368Z,2.60
2023-05-13T11:45:44.398Z,2.90
2023-05-13T11:46:44.319Z,2.40
2023-05-13T11:47:44.392Z,2.70
2023-05-13T11:48:44.333Z,2.60
2023-05-13T11:49:44.304Z,2.70
2023-05-13T11:50:44.295Z,3.00
2023-05-13T11:51:44.291Z,2.60
2023-05-13T11:52:44.264Z,2.50
2023-05-13T11:53:44.276Z,2.80
2023-05-13T11:54:44.318Z,2.60
2023-05-13T11:55:44.283Z,2.60
2023-05-13T11:56:44.230Z,2.80
2023-05-13T11:57:44.201Z,2.50
2023-05-13T11:58:44.303Z,2.60
2023-05-13T11:59:48.143Z,2.70
2023-05-13T12:00:46.591Z,2.70
2023-05-13T12:01:45.230Z,2.70
2023-05-13T12:02:44.359Z,3.00
2023-05-13T12:03:44.275Z,2.70
2023-05-13T12:04:44.197Z,2.60
2023-05-13T12:05:44.345Z,2.80
2023-05-13T12:06:44.146Z,2.70
2023-05-13T12:07:44.115Z,2.80
2023-05-13T12:08:44.136Z,3.00
2023-05-13T12:09:44.129Z,2.70
2023-05-13T12:10:44.114Z,2.70
2023-05-13T12:11:44.107Z,2.70
2023-05-13T12:12:44.134Z,2.90
2023-05-13T12:13:44.038Z,2.80
2023-05-13T12:14:44.060Z,2.60
2023-05-13T12:15:44.079Z,2.90
2023-05-13T12:16:44.070Z,3.00
2023-05-13T12:17:44.093Z,2.70
2023-05-13T12:18:44.024Z,2.40
2023-05-13T12:19:44.004Z,2.50
2023-05-13T12:20:43.965Z,2.90
2023-05-13T12:21:43.974Z,2.30
2023-05-13T12:22:43.985Z,2.80
2023-05-13T12:23:43.963Z,2.50
2023-05-13T12:24:43.972Z,2.90
2023-05-13T12:25:43.995Z,3.00
2023-05-13T12:26:44.063Z,2.70
2023-05-13T12:27:43.948Z,3.00
2023-05-13T12:28:43.909Z,2.80
2023-05-13T12:29:43.887Z,2.70
2023-05-13T12:30:43.870Z,2.40
2023-05-13T12:31:43.893Z,2.60
2023-05-13T12:32:46.923Z,2.80
2023-05-13T12:33:43.827Z,2.50
2023-05-13T12:34:43.833Z,2.80
2023-05-13T12:35:43.836Z,2.80
2023-05-13T12:36:43.847Z,2.80
2023-05-13T12:37:43.800Z,2.60
2023-05-13T12:38:43.786Z,2.60
2023-05-13T12:39:43.772Z,2.80
2023-05-13T12:40:43.805Z,2.40
2023-05-13T12:41:43.777Z,2.90
2023-05-13T12:42:43.747Z,2.80
2023-05-13T12:43:43.730Z,2.70
2023-05-13T12:44:43.736Z,2.80
2023-05-13T12:45:44.956Z,2.80
2023-05-13T12:46:44.822Z,2.40
2023-05-13T12:47:43.746Z,3.10
2023-05-13T12:48:43.693Z,2.80
2023-05-13T12:49:43.693Z,2.40
2023-05-13T12:50:43.665Z,2.80
2023-05-13T12:51:43.649Z,2.60
2023-05-13T12:52:43.684Z,2.40
2023-05-13T12:53:43.698Z,2.50
2023-05-13T12:54:43.646Z,2.40
2023-05-13T12:55:43.622Z,2.50
2023-05-13T12:56:43.637Z,2.70
2023-05-13T12:57:43.625Z,3.10
2023-05-13T12:58:43.601Z,2.80
2023-05-13T12:59:43.596Z,2.80
2023-05-13T13:00:43.616Z,2.30
2023-05-13T13:01:43.685Z,2.90
2023-05-13T13:02:43.673Z,2.60
2023-05-13T13:03:43.632Z,2.70
2023-05-13T13:04:43.514Z,2.90